Time;durP1;ratioP1;P1;durP2;ratioP2;P2;SDS_P1;SDS_P2;PMS_P1;PMS_P2;Temp;Humidity;BMP_temperature;BMP_pressure;BME280_temperature;BME280_humidity;BME280_pressure;Samples;Min_cycle;Max_cycle;Signal;HPM_P1;HPM_P2
2024/04/21 00:01:38;;;;;;;0.20;0.10;;;7.00;69.70;;;;;;5449049;26;20018;-73
2024/04/21 00:04:04;;;;;;;0.25;0.17;;;7.20;68.90;;;;;;5454961;26;20006;-73
2024/04/21 00:06:29;;;;;;;1.98;0.30;;;7.20;69.30;;;;;;5452491;26;20006;-73
2024/04/21 00:08:55;;;;;;;0.20;0.20;;;7.00;69.70;;;;;;5455346;26;20025;-73
2024/04/21 00:11:20;;;;;;;0.50;0.20;;;6.90;69.90;;;;;;5453931;26;20325;-74
2024/04/21 00:13:46;;;;;;;1.00;0.30;;;7.00;69.60;;;;;;5456463;26;20440;-74
2024/04/21 00:16:12;;;;;;;0.13;0.10;;;6.90;70.20;;;;;;5451695;26;20126;-73
2024/04/21 00:18:37;;;;;;;1.40;0.50;;;6.80;70.50;;;;;;5451881;26;20007;-71
2024/04/21 00:21:03;;;;;;;0.73;0.28;;;6.80;70.50;;;;;;5451397;26;20003;-74
2024/04/21 00:23:29;;;;;;;0.35;0.20;;;6.80;69.80;;;;;;5457069;26;20021;-72
2024/04/21 00:25:58;;;;;;;0.70;0.22;;;6.90;69.20;;;;;;5456295;26;20012;-71
2024/04/21 00:28:24;;;;;;;0.95;0.25;;;6.90;70.00;;;;;;5451356;26;20002;-72
2024/04/21 00:30:49;;;;;;;2.30;0.20;;;7.10;69.50;;;;;;5449366;26;20121;-72
2024/04/21 00:33:15;;;;;;;0.77;0.20;;;7.00;69.50;;;;;;5456156;26;20014;-72
2024/04/21 00:35:46;;;;;;;0.20;0.10;;;6.80;70.50;;;;;;5451867;26;20345;-72
2024/04/21 00:38:12;;;;;;;0.52;0.10;;;6.80;70.30;;;;;;5449231;26;20016;-72
2024/04/21 00:40:38;;;;;;;0.65;0.28;;;6.90;70.40;;;;;;5453409;26;19995;-72
2024/04/21 00:43:04;;;;;;;0.32;0.13;;;6.90;69.60;;;;;;5450195;26;20090;-72
2024/04/21 00:45:31;;;;;;;0.65;0.15;;;7.00;70.00;;;;;;5448094;26;20017;-72
2024/04/21 00:47:57;;;;;;;0.88;0.20;;;7.00;69.90;;;;;;5462210;26;20640;-71
2024/04/21 00:50:24;;;;;;;1.17;0.32;;;6.90;70.00;;;;;;5466285;26;20006;-71
2024/04/21 00:52:52;;;;;;;1.13;0.30;;;6.90;70.50;;;;;;5462090;26;20010;-71
2024/04/21 00:55:18;;;;;;;0.52;0.15;;;7.00;69.70;;;;;;5463295;26;20078;-71
2024/04/21 00:57:44;;;;;;;2.08;0.30;;;6.80;69.80;;;;;;5462611;26;20082;-72
2024/04/21 01:00:12;;;;;;;0.52;0.10;;;6.60;70.40;;;;;;5461598;26;20348;-71
2024/04/21 01:02:37;;;;;;;0.38;0.10;;;6.60;71.10;;;;;;5459968;26;20017;-71
2024/04/21 01:05:04;;;;;;;0.10;0.10;;;6.40;71.10;;;;;;5463184;26;20006;-71
2024/04/21 01:07:30;;;;;;;0.60;0.28;;;6.50;71.00;;;;;;5466330;26;20002;-71
2024/04/21 01:09:55;;;;;;;0.50;0.20;;;6.30;71.30;;;;;;5462008;26;20075;-71
2024/04/21 01:12:21;;;;;;;0.45;0.20;;;6.40;71.50;;;;;;5462216;26;20082;-71
2024/04/21 01:14:46;;;;;;;1.55;0.15;;;6.60;71.00;;;;;;5456912;26;20305;-71
2024/04/21 01:17:12;;;;;;;1.25;0.40;;;6.80;70.70;;;;;;5458522;26;20713;-72
2024/04/21 01:19:38;;;;;;;0.55;0.20;;;7.20;69.90;;;;;;5461313;26;19994;-71
2024/04/21 01:22:03;;;;;;;0.52;0.28;;;7.20;70.00;;;;;;5462932;26;20593;-72
2024/04/21 01:24:29;;;;;;;1.55;0.25;;;7.20;69.90;;;;;;5456821;26;20007;-72
2024/04/21 01:26:55;;;;;;;0.65;0.17;;;6.90;71.00;;;;;;5463015;26;20456;-72
2024/04/21 01:29:20;;;;;;;0.73;0.10;;;6.70;70.90;;;;;;5467135;26;20463;-71
2024/04/21 01:31:46;;;;;;;0.40;0.20;;;6.90;70.60;;;;;;5469683;26;20010;-71
2024/04/21 01:34:11;;;;;;;0.55;0.20;;;7.00;70.10;;;;;;5470716;26;20360;-71
2024/04/21 01:36:37;;;;;;;0.45;0.20;;;6.70;71.00;;;;;;5470186;26;20002;-71
2024/04/21 01:39:03;;;;;;;0.28;0.13;;;6.20;71.40;;;;;;5468687;26;20032;-71
2024/04/21 01:41:28;;;;;;;0.30;0.10;;;6.10;72.00;;;;;;5464967;26;20365;-72
2024/04/21 01:43:54;;;;;;;0.68;0.20;;;6.10;72.10;;;;;;5466872;26;20024;-71
2024/04/21 01:46:20;;;;;;;0.52;0.20;;;6.30;71.90;;;;;;5462090;26;20024;-71
2024/04/21 01:48:45;;;;;;;0.30;0.20;;;6.50;72.10;;;;;;5458011;26;20452;-71
2024/04/21 01:51:11;;;;;;;0.38;0.20;;;6.40;71.70;;;;;;5462547;26;20002;-71
2024/04/21 01:53:37;;;;;;;0.38;0.10;;;6.40;71.90;;;;;;5463297;26;20043;-71
2024/04/21 01:56:03;;;;;;;0.52;0.10;;;6.20;72.50;;;;;;5467129;26;20505;-72
2024/04/21 01:58:28;;;;;;;1.38;0.30;;;6.10;72.60;;;;;;5458844;26;20006;-71
2024/04/21 02:00:54;;;;;;;0.30;0.20;;;5.80;72.80;;;;;;5452674;26;20704;-71
2024/04/21 02:03:19;;;;;;;2.40;0.35;;;6.20;71.80;;;;;;5465104;26;20050;-71
2024/04/21 02:05:45;;;;;;;1.70;0.30;;;5.80;72.80;;;;;;5456018;26;20095;-71
2024/04/21 02:08:11;;;;;;;0.95;0.30;;;5.60;73.00;;;;;;5464187;26;20034;-72
2024/04/21 02:10:36;;;;;;;0.52;0.25;;;5.40;73.60;;;;;;5461452;26;20467;-71
2024/04/21 02:13:02;;;;;;;1.17;0.30;;;5.60;73.60;;;;;;5461726;26;20017;-72
2024/04/21 02:15:28;;;;;;;0.88;0.30;;;5.60;73.80;;;;;;5464323;26;20059;-71
2024/04/21 02:17:53;;;;;;;0.93;0.35;;;5.60;73.60;;;;;;5465139;26;20010;-71
2024/04/21 02:20:19;;;;;;;1.20;0.15;;;5.60;73.50;;;;;;5466291;26;20471;-71
2024/04/21 02:22:44;;;;;;;1.13;0.35;;;5.60;73.30;;;;;;5463286;26;20043;-71
2024/04/21 02:25:10;;;;;;;0.73;0.30;;;5.70;73.20;;;;;;5465640;26;20148;-71
2024/04/21 02:27:36;;;;;;;0.82;0.20;;;5.60;72.90;;;;;;5459533;26;20014;-71
2024/04/21 02:30:01;;;;;;;0.77;0.28;;;5.60;72.90;;;;;;5462972;26;20042;-72
2024/04/21 02:32:27;;;;;;;0.32;0.10;;;5.50;73.50;;;;;;5461866;26;20114;-71
2024/04/21 02:34:52;;;;;;;0.70;0.30;;;5.30;74.30;;;;;;5455179;26;20003;-71
2024/04/21 02:37:18;;;;;;;1.67;0.28;;;5.40;73.70;;;;;;5461997;26;20005;-71
2024/04/21 02:39:43;;;;;;;0.13;0.10;;;5.50;74.40;;;;;;5465793;26;20078;-71
2024/04/21 02:42:10;;;;;;;0.45;0.10;;;5.50;74.50;;;;;;5456029;26;20020;-71
2024/04/21 02:44:35;;;;;;;0.68;0.28;;;5.50;74.30;;;;;;5460760;26;20002;-71
2024/04/21 02:47:01;;;;;;;1.23;0.30;;;5.30;74.50;;;;;;5462526;26;20017;-71
2024/04/21 02:49:26;;;;;;;1.60;0.35;;;5.20;74.40;;;;;;5455079;26;19998;-71
2024/04/21 02:51:52;;;;;;;0.20;0.10;;;5.40;74.10;;;;;;5463409;26;20006;-72
2024/04/21 02:54:21;;;;;;;2.88;0.32;;;5.20;74.60;;;;;;5453543;26;19998;-71
2024/04/21 02:56:46;;;;;;;0.13;0.10;;;5.10;75.00;;;;;;5460000;26;20333;-71
2024/04/21 02:59:12;;;;;;;0.35;0.20;;;5.10;75.30;;;;;;5455041;26;20039;-71
2024/04/21 03:01:38;;;;;;;0.63;0.30;;;5.00;75.90;;;;;;5453535;26;20002;-71
2024/04/21 03:04:03;;;;;;;0.68;0.20;;;5.20;75.20;;;;;;5455458;26;20608;-72
2024/04/21 03:06:29;;;;;;;0.30;0.20;;;5.10;75.60;;;;;;5455350;26;20010;-73
2024/04/21 03:08:54;;;;;;;0.73;0.25;;;5.10;75.80;;;;;;5456261;26;20012;-72
2024/04/21 03:11:20;;;;;;;0.52;0.13;;;5.10;75.50;;;;;;5448159;26;20029;-72
2024/04/21 03:13:46;;;;;;;0.77;0.30;;;5.10;76.00;;;;;;5451997;26;20012;-72
2024/04/21 03:16:12;;;;;;;0.40;0.30;;;4.80;76.60;;;;;;5457978;26;20401;-73
2024/04/21 03:18:38;;;;;;;0.13;0.08;;;4.80;76.60;;;;;;5452176;26;20038;-72
2024/04/21 03:21:04;;;;;;;0.20;0.10;;;4.70;76.80;;;;;;5458204;26;20619;-72
2024/04/21 03:23:30;;;;;;;1.40;0.30;;;4.80;77.50;;;;;;5456692;26;20026;-73
2024/04/21 03:25:55;;;;;;;0.25;0.13;;;4.70;77.40;;;;;;5450737;26;20013;-71
2024/04/21 03:28:21;;;;;;;0.47;0.35;;;4.60;77.60;;;;;;5453100;26;19994;-72
2024/04/21 03:30:57;;;;;;;0.60;0.28;;;4.60;78.10;;;;;;5455488;26;20021;-72
2024/04/21 03:33:23;;;;;;;0.45;0.10;;;4.60;78.10;;;;;;5456511;26;20086;-72
2024/04/21 03:36:02;;;;;;;1.23;0.20;;;4.70;77.10;;;;;;5456051;26;20010;-73
2024/04/21 03:38:27;;;;;;;1.42;0.47;;;4.60;77.90;;;;;;5455619;26;20025;-73
2024/04/21 03:40:53;;;;;;;0.45;0.28;;;4.60;77.90;;;;;;5456966;26;20499;-73
2024/04/21 03:43:19;;;;;;;0.47;0.13;;;4.50;78.00;;;;;;5454630;26;20160;-72
2024/04/21 03:45:45;;;;;;;0.13;0.10;;;4.60;77.90;;;;;;5456331;26;20013;-72
2024/04/21 03:48:10;;;;;;;0.47;0.20;;;4.70;77.40;;;;;;5456855;26;20005;-71
2024/04/21 03:50:36;;;;;;;0.70;0.30;;;4.70;77.30;;;;;;5460662;26;20003;-73
2024/04/21 03:53:01;;;;;;;0.75;0.17;;;4.80;77.20;;;;;;5459424;26;20082;-72
2024/04/21 03:55:27;;;;;;;0.35;0.20;;;4.90;77.00;;;;;;5454725;26;20044;-72
2024/04/21 03:57:53;;;;;;;0.40;0.20;;;5.00;76.80;;;;;;5458739;26;20017;-72
2024/04/21 04:00:19;;;;;;;1.52;0.35;;;4.90;77.10;;;;;;5462120;26;20102;-73
2024/04/21 04:02:44;;;;;;;0.65;0.20;;;5.00;77.00;;;;;;5459110;26;20009;-72
2024/04/21 04:05:10;;;;;;;0.38;0.10;;;5.10;76.60;;;;;;5457342;26;20014;-73
2024/04/21 04:07:35;;;;;;;1.35;0.30;;;5.00;76.90;;;;;;5458551;26;20006;-72
2024/04/21 04:10:01;;;;;;;1.65;0.52;;;5.00;76.90;;;;;;5461450;26;20038;-72
2024/04/21 04:12:26;;;;;;;1.08;0.45;;;5.00;77.10;;;;;;5461440;26;20020;-72
2024/04/21 04:14:52;;;;;;;2.50;0.60;;;5.00;77.20;;;;;;5457955;26;20002;-73
2024/04/21 04:17:18;;;;;;;1.38;0.70;;;5.20;76.80;;;;;;5457416;26;20035;-72
2024/04/21 04:19:43;;;;;;;0.25;0.17;;;5.10;77.50;;;;;;5460208;26;20006;-73
2024/04/21 04:22:09;;;;;;;1.85;0.55;;;5.10;77.20;;;;;;5460751;26;20971;-72
2024/04/21 04:24:35;;;;;;;0.50;0.20;;;4.90;77.30;;;;;;5462922;26;20002;-72
2024/04/21 04:27:00;;;;;;;0.82;0.40;;;5.10;77.00;;;;;;5457863;26;20003;-72
2024/04/21 04:29:26;;;;;;;0.57;0.30;;;5.20;76.90;;;;;;5459194;26;20003;-72
2024/04/21 04:31:51;;;;;;;0.17;0.13;;;5.10;77.10;;;;;;5458934;26;20015;-72
2024/04/21 04:34:17;;;;;;;0.82;0.30;;;5.10;77.30;;;;;;5458621;26;20006;-72
2024/04/21 04:36:43;;;;;;;0.57;0.25;;;5.10;77.60;;;;;;5460558;26;20040;-72
2024/04/21 04:39:09;;;;;;;0.40;0.25;;;5.10;77.80;;;;;;5458800;26;19998;-72
2024/04/21 04:41:34;;;;;;;1.13;0.40;;;5.20;77.00;;;;;;5456822;26;19998;-74
2024/04/21 04:44:00;;;;;;;0.60;0.20;;;5.50;76.80;;;;;;5460280;26;20006;-72
2024/04/21 04:46:25;;;;;;;1.20;0.20;;;5.30;77.80;;;;;;5458319;26;20002;-73
2024/04/21 04:48:51;;;;;;;0.98;0.40;;;5.30;78.10;;;;;;5460477;26;20010;-72
2024/04/21 04:51:17;;;;;;;0.77;0.32;;;5.30;77.90;;;;;;5459104;26;19995;-74
2024/04/21 04:53:42;;;;;;;1.33;0.52;;;5.40;77.30;;;;;;5460457;26;20678;-72
2024/04/21 04:56:08;;;;;;;0.77;0.25;;;5.50;78.30;;;;;;5453999;26;20010;-72
2024/04/21 04:58:33;;;;;;;0.63;0.22;;;5.60;77.80;;;;;;5463474;26;19998;-73
2024/04/21 05:00:59;;;;;;;1.48;0.50;;;5.80;76.70;;;;;;5463755;26;20040;-73
2024/04/21 05:03:25;;;;;;;1.92;0.60;;;6.00;76.40;;;;;;5461149;26;20034;-72
2024/04/21 05:05:50;;;;;;;2.28;0.70;;;6.30;76.90;;;;;;5459665;26;20021;-73
2024/04/21 05:08:16;;;;;;;1.70;0.60;;;5.90;77.90;;;;;;5460344;26;20123;-73
2024/04/21 05:10:41;;;;;;;1.88;0.70;;;6.00;77.00;;;;;;5458299;26;20013;-73
2024/04/21 05:13:07;;;;;;;0.75;0.30;;;6.00;77.70;;;;;;5452222;26;20005;-73
2024/04/21 05:15:32;;;;;;;0.52;0.22;;;6.00;77.50;;;;;;5458524;26;20014;-73
2024/04/21 05:17:58;;;;;;;0.98;0.40;;;6.20;76.30;;;;;;5463957;26;19998;-73
2024/04/21 05:20:23;;;;;;;1.30;0.50;;;6.00;78.20;;;;;;5461377;26;20078;-73
2024/04/21 05:22:49;;;;;;;1.85;0.80;;;6.00;78.60;;;;;;5462453;26;20036;-73
2024/04/21 05:25:15;;;;;;;1.58;0.68;;;5.90;78.70;;;;;;5461174;26;20006;-73
2024/04/21 05:27:40;;;;;;;1.73;0.55;;;5.90;79.60;;;;;;5458472;26;20463;-72
2024/04/21 05:30:07;;;;;;;1.63;0.35;;;6.00;80.00;;;;;;5457191;26;20021;-73
2024/04/21 05:32:32;;;;;;;0.82;0.40;;;6.10;78.40;;;;;;5461464;26;20074;-73
2024/04/21 05:34:58;;;;;;;1.20;0.32;;;6.20;78.00;;;;;;5456880;26;20010;-73
2024/04/21 05:37:23;;;;;;;1.70;0.50;;;6.30;78.60;;;;;;5461142;26;20033;-72
2024/04/21 05:39:49;;;;;;;2.40;0.57;;;6.20;81.10;;;;;;5463500;26;20013;-73
2024/04/21 05:42:14;;;;;;;1.35;0.60;;;6.30;80.60;;;;;;5461187;26;20006;-73
2024/04/21 05:44:40;;;;;;;0.50;0.30;;;6.30;81.50;;;;;;5462914;26;20006;-73
2024/04/21 05:47:06;;;;;;;1.13;0.45;;;6.40;83.00;;;;;;5461519;26;20024;-73
2024/04/21 05:49:31;;;;;;;2.38;0.60;;;6.20;83.20;;;;;;5460686;26;20042;-72
2024/04/21 05:51:57;;;;;;;0.65;0.40;;;6.30;80.80;;;;;;5461191;26;20009;-73
2024/04/21 05:54:22;;;;;;;0.55;0.30;;;6.40;80.10;;;;;;5463548;26;20017;-73
2024/04/21 05:56:48;;;;;;;0.73;0.30;;;6.50;80.40;;;;;;5457678;26;20002;-73
2024/04/21 05:59:13;;;;;;;0.90;0.30;;;6.70;78.80;;;;;;5457076;26;20002;-74
2024/04/21 06:01:39;;;;;;;1.15;0.40;;;6.80;79.10;;;;;;5456665;26;20021;-72
2024/04/21 06:04:05;;;;;;;0.63;0.28;;;6.90;78.90;;;;;;5457934;26;20474;-72
2024/04/21 06:06:30;;;;;;;3.83;0.50;;;6.90;77.70;;;;;;5459499;26;20025;-72
2024/04/21 06:08:56;;;;;;;1.40;0.73;;;6.80;82.80;;;;;;5453869;26;20788;-72
2024/04/21 06:11:21;;;;;;;2.22;0.70;;;6.70;82.80;;;;;;5458655;26;20016;-73
2024/04/21 06:13:47;;;;;;;2.38;0.80;;;6.60;83.10;;;;;;5458497;26;20070;-72
2024/04/21 06:16:12;;;;;;;1.35;0.50;;;6.70;84.80;;;;;;5458983;26;20013;-72
2024/04/21 06:18:38;;;;;;;2.55;0.50;;;6.70;77.80;;;;;;5457661;26;20006;-73
2024/04/21 06:21:04;;;;;;;2.38;0.80;;;6.90;77.70;;;;;;5458537;26;20002;-73
2024/04/21 06:23:29;;;;;;;0.88;0.45;;;7.10;76.50;;;;;;5455781;26;20021;-73
2024/04/21 06:25:55;;;;;;;7.82;2.10;;;7.10;75.40;;;;;;5455855;26;20910;-72
2024/04/21 06:28:20;;;;;;;5.82;1.50;;;7.20;76.70;;;;;;5455593;26;20002;-73
2024/04/21 06:30:46;;;;;;;9.70;5.07;;;7.40;76.10;;;;;;5461329;26;20039;-74
2024/04/21 06:33:12;;;;;;;11.48;5.75;;;7.60;78.10;;;;;;5461779;26;20002;-76
2024/04/21 06:35:37;;;;;;;10.38;4.97;;;7.60;78.90;;;;;;5460152;26;20668;-74
2024/04/21 06:38:03;;;;;;;14.63;2.72;;;7.50;79.90;;;;;;5456993;26;20444;-74
2024/04/21 06:40:30;;;;;;;2.70;1.25;;;7.50;77.30;;;;;;5447392;26;20531;-74
2024/04/21 06:42:55;;;;;;;6.15;2.28;;;7.60;78.10;;;;;;5449495;26;20002;-73
2024/04/21 06:45:21;;;;;;;1.90;0.82;;;7.70;76.90;;;;;;5456457;26;20017;-73
2024/04/21 06:47:47;;;;;;;1.40;0.65;;;7.80;78.70;;;;;;5456552;26;20048;-73
2024/04/21 06:50:13;;;;;;;3.80;0.93;;;7.70;80.20;;;;;;5456763;26;19998;-74
2024/04/21 06:52:39;;;;;;;4.43;2.00;;;7.60;80.80;;;;;;5455903;26;21416;-73
2024/04/21 06:55:05;;;;;;;2.22;1.10;;;7.80;81.40;;;;;;5456972;26;20009;-72
2024/04/21 06:57:31;;;;;;;2.80;0.70;;;8.00;81.60;;;;;;5454268;26;20347;-72
2024/04/21 06:59:57;;;;;;;2.10;0.88;;;8.00;81.60;;;;;;5453945;26;20055;-73
2024/04/21 07:02:23;;;;;;;5.60;0.70;;;8.20;81.40;;;;;;5450062;26;20006;-74
2024/04/21 07:04:48;;;;;;;2.10;0.88;;;8.50;81.50;;;;;;5451631;26;19998;-74
2024/04/21 07:07:14;;;;;;;5.20;2.67;;;8.70;78.50;;;;;;5454032;26;20022;-73
2024/04/21 07:09:40;;;;;;;7.57;4.30;;;9.70;75.30;;;;;;5448726;26;20078;-74
2024/04/21 07:12:07;;;;;;;4.72;2.47;;;10.70;75.10;;;;;;5453056;26;21054;-73
2024/04/21 07:14:33;;;;;;;6.53;2.25;;;11.90;73.50;;;;;;5452410;26;20764;-73
2024/04/21 07:16:58;;;;;;;5.65;2.15;;;13.20;72.70;;;;;;5457869;26;20464;-75
2024/04/21 07:19:24;;;;;;;1.45;0.60;;;13.20;71.40;;;;;;5451880;26;20459;-72
2024/04/21 07:21:49;;;;;;;1.65;0.90;;;13.10;69.10;;;;;;5453091;26;20002;-73
2024/04/21 07:24:15;;;;;;;4.70;0.52;;;12.90;69.20;;;;;;5453142;26;20005;-73
2024/04/21 07:26:41;;;;;;;6.18;1.67;;;11.70;69.90;;;;;;5454896;26;20002;-73
2024/04/21 07:29:06;;;;;;;4.72;1.75;;;12.10;69.40;;;;;;5455606;26;20018;-73
2024/04/21 07:31:32;;;;;;;4.20;1.38;;;11.70;70.80;;;;;;5449177;26;20025;-73
2024/04/21 07:33:58;;;;;;;1.33;0.50;;;11.20;71.70;;;;;;5455382;26;20001;-73
2024/04/21 07:36:23;;;;;;;0.75;0.30;;;10.30;73.00;;;;;;5455000;26;20013;-73
2024/04/21 07:38:52;;;;;;;2.95;0.82;;;9.60;71.80;;;;;;5446018;26;20430;-73
2024/04/21 07:41:19;;;;;;;1.10;0.50;;;9.20;72.00;;;;;;5450268;26;20040;-75
2024/04/21 07:43:44;;;;;;;1.35;0.32;;;9.10;73.30;;;;;;5454624;26;20006;-73
2024/04/21 07:46:10;;;;;;;9.73;4.68;;;8.80;72.90;;;;;;5454523;26;20012;-73
2024/04/21 07:48:36;;;;;;;5.97;2.30;;;8.50;72.60;;;;;;5447935;26;20019;-73
2024/04/21 07:51:01;;;;;;;2.85;1.27;;;8.70;74.10;;;;;;5447895;26;20013;-73
2024/04/21 07:53:27;;;;;;;3.30;0.77;;;8.80;73.00;;;;;;5443418;26;20787;-74
2024/04/21 07:55:53;;;;;;;0.57;0.47;;;9.20;74.00;;;;;;5455746;26;20055;-74
2024/04/21 07:58:18;;;;;;;0.70;0.30;;;9.20;71.90;;;;;;5457104;26;20002;-73
2024/04/21 08:00:44;;;;;;;1.52;0.40;;;9.40;72.50;;;;;;5456075;26;20145;-74
2024/04/21 08:03:09;;;;;;;2.30;0.90;;;9.20;72.00;;;;;;5456492;26;20010;-73
2024/04/21 08:05:35;;;;;;;2.53;0.82;;;9.10;72.90;;;;;;5460423;26;20017;-73
2024/04/21 08:08:00;;;;;;;1.75;0.50;;;9.30;73.00;;;;;;5457705;26;20448;-74
2024/04/21 08:10:26;;;;;;;0.45;0.28;;;9.30;72.60;;;;;;5458976;26;20005;-73
2024/04/21 08:12:52;;;;;;;0.52;0.30;;;9.40;72.70;;;;;;5457157;26;20432;-73
2024/04/21 08:15:17;;;;;;;2.10;0.70;;;9.60;74.10;;;;;;5461741;26;20047;-71
2024/04/21 08:17:43;;;;;;;19.15;7.97;;;9.80;73.60;;;;;;5455932;26;20002;-72
2024/04/21 08:20:09;;;;;;;7.93;3.55;;;9.90;75.30;;;;;;5462154;26;20006;-72
2024/04/21 08:22:35;;;;;;;19.08;8.98;;;9.90;75.80;;;;;;5444045;26;20002;-73
2024/04/21 08:25:01;;;;;;;9.45;3.88;;;10.00;74.50;;;;;;5443195;26;20006;-72
2024/04/21 08:27:27;;;;;;;11.00;6.35;;;10.10;74.50;;;;;;5454859;26;20512;-72
2024/04/21 08:29:53;;;;;;;30.73;16.83;;;10.10;74.00;;;;;;5457542;26;20007;-73
2024/04/21 08:32:18;;;;;;;12.30;6.40;;;10.50;74.20;;;;;;5455963;26;20079;-73
2024/04/21 08:34:44;;;;;;;6.45;2.55;;;11.20;71.30;;;;;;5457699;26;20005;-72
2024/04/21 08:37:11;;;;;;;2.80;1.23;;;12.10;72.60;;;;;;5446001;26;20013;-73
2024/04/21 08:39:37;;;;;;;3.60;1.00;;;12.50;72.70;;;;;;5457624;26;20350;-72
2024/04/21 08:42:03;;;;;;;18.77;7.90;;;12.20;70.30;;;;;;5449217;26;20002;-72
2024/04/21 08:44:29;;;;;;;8.02;2.75;;;12.10;70.60;;;;;;5454074;26;20016;-72
2024/04/21 08:46:57;;;;;;;3.47;1.13;;;12.10;73.10;;;;;;5448496;26;20002;-72
2024/04/21 08:49:23;;;;;;;2.08;0.50;;;12.10;72.30;;;;;;5461155;26;20551;-73
2024/04/21 08:51:50;;;;;;;5.55;1.80;;;11.60;71.00;;;;;;5461410;26;20005;-73
2024/04/21 08:54:16;;;;;;;14.90;5.05;;;11.90;71.90;;;;;;5460874;26;20051;-72
2024/04/21 08:56:47;;;;;;;10.75;2.83;;;12.00;72.70;;;;;;5455514;26;20018;-73
2024/04/21 08:59:13;;;;;;;10.73;3.67;;;12.20;71.80;;;;;;5458476;26;20022;-72
2024/04/21 09:01:40;;;;;;;6.82;2.47;;;12.20;70.80;;;;;;5459945;26;20009;-72
2024/04/21 09:04:06;;;;;;;3.72;1.30;;;12.10;71.00;;;;;;5460019;26;20543;-73
2024/04/21 09:06:35;;;;;;;5.47;2.90;;;11.60;70.90;;;;;;5459036;26;20685;-73
2024/04/21 09:09:00;;;;;;;4.18;1.48;;;11.60;72.20;;;;;;5463107;26;20600;-73
2024/04/21 09:11:29;;;;;;;8.07;0.90;;;12.00;73.60;;;;;;5459573;26;20006;-73
2024/04/21 09:13:55;;;;;;;1.20;0.65;;;11.90;71.90;;;;;;5461788;26;20567;-73
2024/04/21 09:16:21;;;;;;;1.20;0.60;;;11.70;68.80;;;;;;5454105;26;20009;-73
2024/04/21 09:18:46;;;;;;;7.25;3.90;;;12.00;71.40;;;;;;5454797;26;20681;-73
2024/04/21 09:21:12;;;;;;;10.98;6.63;;;12.00;70.40;;;;;;5455252;26;20018;-73
2024/04/21 09:23:40;;;;;;;5.60;3.03;;;12.10;70.40;;;;;;5454640;26;20048;-73
2024/04/21 09:26:07;;;;;;;1.73;0.88;;;12.20;69.60;;;;;;5452914;26;20102;-73
2024/04/21 09:28:33;;;;;;;1.52;0.65;;;12.20;71.60;;;;;;5454176;26;20078;-73
2024/04/21 09:30:59;;;;;;;14.90;10.38;;;12.10;68.50;;;;;;5450704;26;20069;-73
2024/04/21 09:33:25;;;;;;;3.80;2.22;;;12.30;70.20;;;;;;5377938;26;20105;-73
2024/04/21 09:35:51;;;;;;;3.63;1.50;;;12.30;70.60;;;;;;5462365;26;20739;-72
2024/04/21 09:38:18;;;;;;;3.00;1.20;;;12.40;68.50;;;;;;5461554;26;20014;-72
2024/04/21 09:40:45;;;;;;;1.85;0.57;;;12.50;70.20;;;;;;5462848;26;20002;-73
2024/04/21 09:43:13;;;;;;;2.63;0.63;;;12.50;69.40;;;;;;5463032;26;20018;-72
2024/04/21 09:45:38;;;;;;;1.77;0.68;;;12.50;69.20;;;;;;5462476;26;20647;-71
2024/04/21 09:48:05;;;;;;;1.92;0.88;;;12.50;72.50;;;;;;5461752;26;20030;-72
2024/04/21 09:50:31;;;;;;;5.75;0.60;;;12.50;67.90;;;;;;5421383;26;1009975;-72
2024/04/21 09:52:57;;;;;;;2.33;1.00;;;12.70;66.90;;;;;;5459566;26;20002;-72
2024/04/21 09:55:24;;;;;;;1.33;0.52;;;13.00;68.00;;;;;;5460394;26;20017;-73
2024/04/21 09:57:58;;;;;;;2.67;1.02;;;13.00;67.10;;;;;;5459278;26;20024;-73
2024/04/21 10:00:24;;;;;;;37.83;18.15;;;13.30;68.20;;;;;;5457773;26;21546;-73
2024/04/21 10:02:52;;;;;;;25.00;11.30;;;13.30;68.20;;;;;;5457455;26;20024;-73
2024/04/21 10:05:19;;;;;;;19.67;10.85;;;13.70;68.30;;;;;;5466857;26;20017;-72
2024/04/21 10:07:48;;;;;;;3.03;1.88;;;13.80;66.40;;;;;;5468303;26;20033;-74
2024/04/21 10:10:20;;;;;;;63.60;27.52;;;13.40;65.70;;;;;;5464069;26;21037;-73
2024/04/21 10:12:49;;;;;;;94.55;43.50;;;13.40;67.70;;;;;;5461117;26;20028;-73
2024/04/21 10:15:19;;;;;;;34.60;18.35;;;13.50;67.40;;;;;;5457502;26;20514;-72
2024/04/21 10:17:59;;;;;;;56.67;26.55;;;13.80;67.60;;;;;;5456220;26;20029;-72
2024/04/21 10:20:40;;;;;;;24.92;12.02;;;14.00;68.50;;;;;;5453128;26;20017;-75
2024/04/21 10:23:11;;;;;;;4.07;1.77;;;14.40;70.00;;;;;;5457922;26;20038;-72
2024/04/21 10:25:40;;;;;;;6.63;2.72;;;14.10;67.60;;;;;;5455201;26;20009;-71
2024/04/21 10:28:06;;;;;;;1.73;0.90;;;14.00;66.10;;;;;;5456493;26;20010;-73
2024/04/21 10:30:31;;;;;;;3.80;0.47;;;14.10;66.60;;;;;;5457483;26;20019;-72
2024/04/21 10:32:59;;;;;;;0.98;0.40;;;14.30;66.50;;;;;;5454083;26;20021;-73
2024/04/21 10:35:24;;;;;;;8.02;7.32;;;14.70;67.00;;;;;;5457296;26;20002;-72
2024/04/21 10:37:55;;;;;;;1.92;1.15;;;15.00;66.40;;;;;;5456923;26;20477;-72
2024/04/21 10:40:21;;;;;;;2.95;0.40;;;15.30;66.30;;;;;;5455257;26;20006;-72
2024/04/21 10:42:53;;;;;;;0.30;0.20;;;15.10;65.60;;;;;;5456107;26;20006;-73
2024/04/21 10:45:23;;;;;;;0.40;0.20;;;14.90;62.80;;;;;;5454815;26;21094;-72
2024/04/21 10:47:49;;;;;;;0.13;0.03;;;15.30;64.10;;;;;;5457979;26;20003;-73
2024/04/21 10:50:16;;;;;;;0.55;0.10;;;15.50;62.70;;;;;;5456375;26;20075;-74
2024/04/21 10:52:41;;;;;;;3.70;0.68;;;15.30;64.70;;;;;;5458286;26;20384;-73
2024/04/21 10:55:07;;;;;;;2.05;0.65;;;15.60;65.70;;;;;;5454924;26;20006;-73
2024/04/21 10:57:33;;;;;;;0.70;0.40;;;15.70;68.60;;;;;;5453714;26;20009;-73
2024/04/21 10:59:59;;;;;;;0.85;0.30;;;15.30;63.40;;;;;;5455734;26;20020;-73
2024/04/21 11:02:25;;;;;;;1.13;0.30;;;15.30;66.50;;;;;;5454304;26;20005;-73
2024/04/21 11:04:51;;;;;;;1.55;0.17;;;15.30;63.60;;;;;;5452634;26;20341;-73
2024/04/21 11:07:18;;;;;;;0.55;0.10;;;15.00;60.30;;;;;;5450771;26;20010;-73
2024/04/21 11:09:43;;;;;;;0.63;0.10;;;15.20;61.50;;;;;;5448908;26;20078;-72
2024/04/21 11:12:10;;;;;;;0.38;0.15;;;15.50;63.70;;;;;;5450827;26;20979;-74
2024/04/21 11:14:36;;;;;;;0.50;0.20;;;15.60;62.90;;;;;;5449119;26;21129;-74
2024/04/21 11:17:01;;;;;;;0.47;0.10;;;15.40;61.30;;;;;;5452810;26;21533;-73
2024/04/21 11:19:29;;;;;;;0.10;0.10;;;15.60;60.60;;;;;;5449462;26;20009;-73
2024/04/21 11:21:55;;;;;;;0.40;0.10;;;15.60;59.00;;;;;;5450695;26;20096;-74
2024/04/21 11:24:21;;;;;;;0.55;0.30;;;15.40;60.90;;;;;;5455200;26;20002;-74
2024/04/21 11:26:46;;;;;;;0.50;0.05;;;15.20;62.60;;;;;;5456276;26;20412;-75
2024/04/21 11:29:12;;;;;;;1.05;0.38;;;14.90;62.20;;;;;;5455570;26;20545;-73
2024/04/21 11:31:38;;;;;;;1.00;0.10;;;15.00;61.80;;;;;;5455644;26;20017;-74
2024/04/21 11:34:04;;;;;;;0.35;0.20;;;14.90;62.40;;;;;;5458337;26;20497;-73
2024/04/21 11:36:32;;;;;;;1.10;0.38;;;14.80;62.00;;;;;;5457283;26;20025;-76
2024/04/21 11:38:58;;;;;;;0.63;0.28;;;14.60;61.00;;;;;;5457609;26;21628;-73
2024/04/21 11:41:23;;;;;;;0.08;0.00;;;14.60;59.60;;;;;;5455985;26;21700;-73
2024/04/21 11:43:52;;;;;;;0.43;0.10;;;14.40;61.90;;;;;;5457464;26;20002;-73
2024/04/21 11:46:18;;;;;;;0.57;0.25;;;14.30;63.30;;;;;;5458842;26;20075;-73
2024/04/21 11:48:52;;;;;;;0.35;0.13;;;14.20;62.20;;;;;;5460346;26;20044;-73
2024/04/21 11:51:17;;;;;;;0.00;0.00;;;14.20;61.30;;;;;;5452900;26;20475;-73
2024/04/21 11:53:43;;;;;;;0.63;0.20;;;14.30;62.50;;;;;;5454191;26;20002;-73
2024/04/21 11:56:09;;;;;;;1.10;0.22;;;14.30;63.00;;;;;;5450140;26;20002;-73
2024/04/21 11:58:34;;;;;;;2.78;0.20;;;14.80;65.10;;;;;;5454319;26;20016;-73
2024/04/21 12:01:01;;;;;;;1.27;0.28;;;14.70;61.70;;;;;;5452079;26;20017;-73
2024/04/21 12:03:27;;;;;;;0.20;0.03;;;14.80;62.40;;;;;;5451728;26;20337;-73
2024/04/21 12:05:52;;;;;;;0.10;0.10;;;14.60;61.60;;;;;;5453455;26;20244;-73
2024/04/21 12:08:18;;;;;;;0.40;0.10;;;14.70;63.30;;;;;;5452914;26;20092;-73
2024/04/21 12:10:44;;;;;;;0.20;0.10;;;14.60;61.90;;;;;;5452004;26;20409;-73
2024/04/21 12:13:09;;;;;;;1.02;0.20;;;14.70;62.90;;;;;;5454365;26;20686;-73
2024/04/21 12:15:35;;;;;;;0.00;0.00;;;14.90;63.80;;;;;;5452972;26;20008;-73
2024/04/21 12:18:08;;;;;;;0.28;0.20;;;14.50;60.90;;;;;;5452668;26;20002;-73
2024/04/21 12:20:36;;;;;;;3.05;0.28;;;14.60;61.30;;;;;;5453295;26;20003;-73
2024/04/21 12:23:05;;;;;;;0.45;0.20;;;14.90;61.30;;;;;;5453512;26;20020;-73
2024/04/21 12:25:32;;;;;;;4.03;1.23;;;15.40;61.80;;;;;;5452676;26;20006;-73
2024/04/21 12:27:57;;;;;;;0.63;0.20;;;15.70;61.30;;;;;;5453514;26;20167;-73
2024/04/21 12:30:23;;;;;;;1.85;0.63;;;15.70;59.40;;;;;;5454364;26;20034;-73
2024/04/21 12:32:49;;;;;;;0.77;0.20;;;15.50;61.60;;;;;;5453395;26;20006;-73
2024/04/21 12:35:14;;;;;;;0.13;0.10;;;15.80;60.60;;;;;;5452367;26;20002;-73
2024/04/21 12:37:41;;;;;;;0.52;0.17;;;15.90;61.40;;;;;;5454079;26;20086;-72
2024/04/21 12:40:07;;;;;;;0.10;0.10;;;16.10;59.90;;;;;;5453285;26;20511;-73
2024/04/21 12:42:32;;;;;;;0.40;0.25;;;15.30;60.90;;;;;;5454171;26;20006;-73
2024/04/21 12:44:58;;;;;;;0.85;0.30;;;14.70;63.30;;;;;;5457979;26;20095;-73
2024/04/21 12:47:24;;;;;;;0.22;0.10;;;14.40;63.90;;;;;;5455649;26;20006;-73